createdAt,value
2016-12-22T00:00:19.709Z,93.51
2016-12-22T00:01:28.407Z,93.8
2016-12-22T00:02:37.110Z,92.85
2016-12-22T00:03:45.806Z,93.13
2016-12-22T00:04:54.501Z,93.23
2016-12-22T00:06:03.205Z,93.04
2016-12-22T00:07:11.904Z,93.13
2016-12-22T00:08:20.603Z,93.23
2016-12-22T00:09:29.295Z,93.42
2016-12-22T00:10:38.024Z,93.42
2016-12-22T00:11:46.725Z,93.04
2016-12-22T00:12:55.451Z,93.13
2016-12-22T00:14:04.154Z,93.13
2016-12-22T00:15:12.853Z,93.04
2016-12-22T00:16:21.550Z,93.04
2016-12-22T00:17:30.276Z,93.13
2016-12-22T00:18:38.966Z,93.13
2016-12-22T00:19:47.663Z,93.42
2016-12-22T00:20:56.356Z,92.85
2016-12-22T00:22:05.054Z,92.47
2016-12-22T00:23:13.760Z,92.38
2016-12-22T00:24:22.458Z,92.28
2016-12-22T00:25:31.150Z,91.52
2016-12-22T00:26:39.850Z,90.72
2016-12-22T00:27:48.548Z,90.48
2016-12-22T00:28:57.248Z,90.29
2016-12-22T00:30:05.946Z,90.48
2016-12-22T00:31:14.645Z,90.29
2016-12-22T00:32:23.348Z,90.15
2016-12-22T00:33:32.044Z,90.48
2016-12-22T00:34:40.738Z,90.58
2016-12-22T00:35:49.429Z,90.44
2016-12-22T00:36:58.162Z,90.86
2016-12-22T00:38:06.858Z,90.86
2016-12-22T00:39:15.558Z,91.43
2016-12-22T00:40:24.264Z,91.05
2016-12-22T00:41:32.959Z,91.67
2016-12-22T00:42:41.704Z,91.67
2016-12-22T00:43:50.405Z,92.05
2016-12-22T00:44:59.101Z,92.43
2016-12-22T00:46:07.797Z,92.61
2016-12-22T00:47:16.492Z,92.8
2016-12-22T00:48:25.509Z,92.9
2016-12-22T00:49:34.207Z,92.33
2016-12-22T00:50:42.900Z,92.43
2016-12-22T00:51:51.599Z,92.61
2016-12-22T00:53:00.320Z,92.61
2016-12-22T00:54:09.019Z,92.14
2016-12-22T00:55:17.711Z,91.95
2016-12-22T00:56:26.413Z,92.33
2016-12-22T00:57:35.110Z,91.86
2016-12-22T00:58:43.806Z,92.61
2016-12-22T00:59:52.514Z,92.33
2016-12-22T01:01:01.207Z,92.43
2016-12-22T01:02:09.909Z,92.52
2016-12-22T01:03:18.607Z,92.52
2016-12-22T01:04:27.331Z,92.61
2016-12-22T01:05:36.029Z,92.99
2016-12-22T01:06:44.732Z,93.27
2016-12-22T01:07:53.426Z,93.65
2016-12-22T01:09:02.121Z,93.84
2016-12-22T01:10:10.826Z,93.94
2016-12-22T01:11:19.523Z,94.04
2016-12-22T01:12:28.226Z,94.13
2016-12-22T01:13:36.921Z,94.13
2016-12-22T01:14:45.619Z,94.89
2016-12-22T01:15:54.322Z,94.79
2016-12-22T01:17:03.037Z,94.51
2016-12-22T01:18:11.730Z,94.79
2016-12-22T01:19:20.426Z,94.79
2016-12-22T01:20:29.122Z,94.42
2016-12-22T01:21:37.818Z,93.75
2016-12-22T01:22:46.510Z,93.94
2016-12-22T01:23:55.229Z,94.04
2016-12-22T01:25:03.929Z,94.04
2016-12-22T01:26:12.622Z,94.23
2016-12-22T01:27:21.319Z,93.94
2016-12-22T01:28:30.012Z,94.04
2016-12-22T01:29:38.705Z,94.04
2016-12-22T01:30:47.403Z,93.94
2016-12-22T01:31:56.101Z,93.65
2016-12-22T01:33:04.831Z,93.08
2016-12-22T01:34:13.531Z,92.99
2016-12-22T01:35:22.234Z,92.8
2016-12-22T01:36:30.933Z,93.37
2016-12-22T01:37:39.628Z,93.37
2016-12-22T01:38:48.360Z,93.08
2016-12-22T01:39:57.088Z,92.61
2016-12-22T01:41:05.784Z,92.8
2016-12-22T01:42:14.478Z,92.9
2016-12-22T01:43:23.491Z,92.8
2016-12-22T01:44:32.185Z,92.9
2016-12-22T01:45:40.882Z,92.99
2016-12-22T01:46:49.587Z,93.18
2016-12-22T01:47:58.281Z,93.08
2016-12-22T01:49:06.978Z,93.84
2016-12-22T01:50:15.674Z,93.46
2016-12-22T01:51:24.367Z,93.18
2016-12-22T01:52:33.060Z,93.65
2016-12-22T01:53:41.756Z,92.99
2016-12-22T01:54:50.446Z,93.46
2016-12-22T01:55:59.144Z,93.56
2016-12-22T01:57:07.840Z,93.18
2016-12-22T01:58:16.533Z,93.18
2016-12-22T01:59:25.229Z,93.18
2016-12-22T02:00:33.926Z,93.08
2016-12-22T02:01:42.622Z,93.08
2016-12-22T02:02:51.357Z,92.8
2016-12-22T02:04:00.052Z,92.8
2016-12-22T02:05:08.746Z,93.46
2016-12-22T02:06:17.445Z,92.9
2016-12-22T02:07:26.485Z,92.99
2016-12-22T02:08:35.178Z,92.9
2016-12-22T02:09:43.875Z,92.9
2016-12-22T02:10:52.575Z,93.37
2016-12-22T02:12:01.273Z,93.08
2016-12-22T02:13:09.974Z,92.9
2016-12-22T02:14:18.679Z,93.37
2016-12-22T02:15:27.371Z,92.61
2016-12-22T02:16:36.068Z,92.71
2016-12-22T02:17:44.765Z,92.71
2016-12-22T02:18:53.459Z,93.46
2016-12-22T02:20:02.155Z,92.9
2016-12-22T02:21:10.850Z,92.61
2016-12-22T02:22:19.555Z,93.56
2016-12-22T02:23:28.247Z,92.61
2016-12-22T02:24:36.943Z,92.9
2016-12-22T02:25:45.670Z,92.61
2016-12-22T02:26:54.366Z,92.52
2016-12-22T02:28:03.060Z,92.9
2016-12-22T02:29:11.758Z,92.71
2016-12-22T02:30:20.451Z,92.52
2016-12-22T02:31:29.149Z,92.24
2016-12-22T02:32:37.847Z,92.33
2016-12-22T02:33:46.549Z,92.71
2016-12-22T02:34:55.247Z,92.14
2016-12-22T02:36:03.943Z,92.05
2016-12-22T02:37:12.637Z,92.24
2016-12-22T02:38:21.332Z,91.38
2016-12-22T02:39:30.025Z,91.57
2016-12-22T02:40:38.720Z,91.76
2016-12-22T02:41:47.418Z,91.67
2016-12-22T02:42:56.119Z,91.76
2016-12-22T02:44:04.816Z,91.19
2016-12-22T02:45:13.550Z,91.57
2016-12-22T02:46:22.246Z,91.38
2016-12-22T02:47:30.943Z,90.72
2016-12-22T02:48:39.635Z,91
2016-12-22T02:49:48.334Z,90.72
2016-12-22T02:50:57.026Z,90.63
2016-12-22T02:52:05.724Z,90.34
2016-12-22T02:53:14.416Z,91.1
2016-12-22T02:54:23.138Z,90.25
2016-12-22T02:55:31.840Z,90.53
2016-12-22T02:56:40.539Z,90.81
2016-12-22T02:57:49.236Z,90.81
2016-12-22T02:58:57.931Z,90.72
2016-12-22T03:00:06.630Z,90.25
2016-12-22T03:01:15.345Z,90.44
2016-12-22T03:02:24.039Z,90.15
2016-12-22T03:03:32.734Z,89.87
2016-12-22T03:04:41.432Z,89.96
2016-12-22T03:05:50.133Z,89.77
2016-12-22T03:06:58.830Z,89.49
2016-12-22T03:08:07.527Z,89.11
2016-12-22T03:09:16.236Z,89.11
2016-12-22T03:10:24.933Z,88.45
2016-12-22T03:11:33.728Z,88.64
2016-12-22T03:12:42.429Z,88.17
2016-12-22T03:13:51.123Z,88.26
2016-12-22T03:14:59.818Z,87.59
2016-12-22T03:16:08.519Z,87.78
2016-12-22T03:17:17.215Z,87.4
2016-12-22T03:18:25.908Z,86.93
2016-12-22T03:19:34.604Z,86.65
2016-12-22T03:20:43.299Z,85.99
2016-12-22T03:21:51.992Z,85.8
2016-12-22T03:23:00.696Z,86.08
2016-12-22T03:24:09.405Z,85.7
2016-12-22T03:25:18.101Z,85.13
2016-12-22T03:26:26.795Z,85.8
2016-12-22T03:27:35.489Z,85.89
2016-12-22T03:28:44.184Z,85.61
2016-12-22T03:29:52.885Z,86.08
2016-12-22T03:31:01.583Z,85.8
2016-12-22T03:32:10.277Z,86.27
2016-12-22T03:33:18.986Z,86.08
2016-12-22T03:34:27.994Z,85.42
2016-12-22T03:35:36.693Z,85.7
2016-12-22T03:36:45.393Z,85.7
2016-12-22T03:37:54.086Z,85.61
2016-12-22T03:39:02.780Z,85.61
2016-12-22T03:40:11.475Z,85.7
2016-12-22T03:41:20.172Z,85.13
2016-12-22T03:42:28.877Z,85.42
2016-12-22T03:43:37.575Z,85.04
2016-12-22T03:44:46.266Z,84.47
2016-12-22T03:45:54.967Z,84.47
2016-12-22T03:47:03.660Z,84.94
2016-12-22T03:48:12.355Z,84.85
2016-12-22T03:49:21.054Z,84.85
2016-12-22T03:50:29.749Z,84.47
2016-12-22T03:51:38.446Z,85.04
2016-12-22T03:52:47.148Z,84.66
2016-12-22T03:53:55.839Z,84.56
2016-12-22T03:55:04.560Z,84.09
2016-12-22T03:56:13.263Z,84.09
2016-12-22T03:57:21.964Z,84
2016-12-22T03:58:30.658Z,84.09
2016-12-22T03:59:39.353Z,84.47
2016-12-22T04:00:48.048Z,84.47
2016-12-22T04:01:56.745Z,84.47
2016-12-22T04:03:05.440Z,85.13
2016-12-22T04:04:14.140Z,85.51
2016-12-22T04:05:22.838Z,85.32
2016-12-22T04:06:31.532Z,84.56
2016-12-22T04:07:40.231Z,84.56
2016-12-22T04:08:48.930Z,84.85
2016-12-22T04:09:57.623Z,84.66
2016-12-22T04:11:06.345Z,84.28
2016-12-22T04:12:15.041Z,84.94
2016-12-22T04:13:23.737Z,84.85
2016-12-22T04:14:32.431Z,84.66
2016-12-22T04:15:41.127Z,84.85
2016-12-22T04:16:49.824Z,84.47
2016-12-22T04:17:58.517Z,84.66
2016-12-22T04:19:07.223Z,84.94
2016-12-22T04:20:15.933Z,84.09
2016-12-22T04:21:24.630Z,84.85
2016-12-22T04:22:33.322Z,84.28
2016-12-22T04:23:42.341Z,84
2016-12-22T04:24:51.039Z,84.09
2016-12-22T04:25:59.741Z,84.28
2016-12-22T04:27:08.444Z,83.71
2016-12-22T04:28:17.141Z,83.9
2016-12-22T04:29:25.834Z,83.52
2016-12-22T04:30:34.529Z,84.38
2016-12-22T04:31:43.229Z,84.38
2016-12-22T04:32:51.933Z,83.9
2016-12-22T04:34:00.627Z,84.38
2016-12-22T04:35:09.326Z,84.23
2016-12-22T04:36:18.025Z,84.19
2016-12-22T04:37:26.729Z,84
2016-12-22T04:38:35.426Z,84.38
2016-12-22T04:39:44.132Z,84.09
2016-12-22T04:40:52.829Z,84.47
2016-12-22T04:42:01.526Z,84.05
2016-12-22T04:43:10.540Z,84.23
2016-12-22T04:44:19.236Z,84.23
2016-12-22T04:45:27.939Z,84.33
2016-12-22T04:46:36.635Z,84.23
2016-12-22T04:47:45.331Z,83.86
2016-12-22T04:48:54.025Z,83.76
2016-12-22T04:50:02.720Z,83.1
2016-12-22T04:51:11.448Z,83.2
2016-12-22T04:52:20.461Z,83.1
2016-12-22T04:53:29.159Z,82.86
2016-12-22T04:54:37.858Z,83.1
2016-12-22T04:55:46.553Z,83.01
2016-12-22T04:56:55.246Z,83.33
2016-12-22T04:58:03.942Z,83.48
2016-12-22T04:59:12.648Z,82.91
2016-12-22T05:00:21.350Z,83.05
2016-12-22T05:01:30.046Z,82.53
2016-12-22T05:02:38.739Z,83.2
2016-12-22T05:03:47.434Z,82.53
2016-12-22T05:04:56.126Z,82.82
2016-12-22T05:06:04.819Z,82.53
2016-12-22T05:07:13.518Z,83.01
2016-12-22T05:08:22.226Z,82.72
2016-12-22T05:09:30.923Z,83.2
2016-12-22T05:10:39.618Z,83.2
2016-12-22T05:11:48.314Z,82.53
2016-12-22T05:12:57.008Z,83.1
2016-12-22T05:14:05.706Z,83.2
2016-12-22T05:15:14.403Z,83.29
2016-12-22T05:16:23.101Z,83.01
2016-12-22T05:17:31.797Z,83.01
2016-12-22T05:18:40.495Z,82.63
2016-12-22T05:19:49.191Z,82.53
2016-12-22T05:20:57.887Z,83.1
2016-12-22T05:22:06.582Z,82.91
2016-12-22T05:23:15.288Z,82.53
2016-12-22T05:24:23.981Z,83.29
2016-12-22T05:25:32.676Z,83.01
2016-12-22T05:26:41.370Z,82.53
2016-12-22T05:27:50.066Z,83.2
2016-12-22T05:28:58.763Z,82.63
2016-12-22T05:30:07.457Z,82.72
2016-12-22T05:31:16.152Z,83.2
2016-12-22T05:32:24.850Z,83.01
2016-12-22T05:33:33.548Z,82.15
2016-12-22T05:34:42.298Z,82.25
2016-12-22T05:35:50.995Z,82.53
2016-12-22T05:36:59.690Z,82.53
2016-12-22T05:38:08.388Z,82.34
2016-12-22T05:39:17.090Z,82.44
2016-12-22T05:40:25.784Z,82.63
2016-12-22T05:41:34.480Z,82.06
2016-12-22T05:42:43.171Z,81.96
2016-12-22T05:43:51.873Z,81.87
2016-12-22T05:45:00.567Z,81.96
2016-12-22T05:46:09.262Z,81.3
2016-12-22T05:47:17.957Z,81.4
2016-12-22T05:48:26.653Z,81.4
2016-12-22T05:49:35.351Z,81.59
2016-12-22T05:50:44.052Z,81.4
2016-12-22T05:51:52.746Z,81.59
2016-12-22T05:53:01.443Z,81.77
2016-12-22T05:54:10.137Z,81.59
2016-12-22T05:55:18.829Z,81.21
2016-12-22T05:56:27.525Z,81.4
2016-12-22T05:57:36.221Z,81.21
2016-12-22T05:58:44.918Z,80.83
2016-12-22T05:59:53.619Z,81.3
2016-12-22T06:01:02.320Z,81.49
2016-12-22T06:02:11.017Z,81.59
2016-12-22T06:03:19.710Z,81.59
2016-12-22T06:04:28.404Z,81.4
2016-12-22T06:05:37.104Z,81.3
2016-12-22T06:06:45.804Z,81.4
2016-12-22T06:07:54.497Z,82.25
2016-12-22T06:09:03.191Z,81.4
2016-12-22T06:10:11.889Z,81.21
2016-12-22T06:11:20.617Z,81.4
2016-12-22T06:12:29.311Z,81.68
2016-12-22T06:13:38.008Z,81.77
2016-12-22T06:14:46.705Z,82.15
2016-12-22T06:15:55.399Z,81.59
2016-12-22T06:17:04.092Z,81.87
2016-12-22T06:18:12.783Z,81.96
2016-12-22T06:19:21.480Z,82.15
2016-12-22T06:20:30.171Z,81.96
2016-12-22T06:21:38.870Z,82.82
2016-12-22T06:22:47.570Z,83.29
2016-12-22T06:23:56.267Z,83.01
2016-12-22T06:25:04.975Z,83.2
2016-12-22T06:26:13.671Z,82.72
2016-12-22T06:27:22.374Z,83.2
2016-12-22T06:28:31.074Z,83.25
2016-12-22T06:29:39.770Z,83.25
2016-12-22T06:30:48.463Z,83.53
2016-12-22T06:31:57.160Z,83.53
2016-12-22T06:33:05.859Z,83.72
2016-12-22T06:34:14.554Z,84.01
2016-12-22T06:35:23.250Z,83.44
2016-12-22T06:36:31.950Z,84.77
2016-12-22T06:37:40.646Z,84.58
2016-12-22T06:38:49.346Z,84.77
2016-12-22T06:39:58.040Z,84.86
2016-12-22T06:41:06.741Z,84.67
2016-12-22T06:42:15.438Z,84.77
2016-12-22T06:43:24.136Z,84.58
2016-12-22T06:44:32.839Z,84.67
2016-12-22T06:45:41.538Z,84.67
2016-12-22T06:46:50.232Z,84.86
2016-12-22T06:47:58.925Z,85.33
2016-12-22T06:49:07.938Z,85.71
2016-12-22T06:50:16.642Z,85.71
2016-12-22T06:51:25.339Z,85.24
2016-12-22T06:52:34.033Z,85.61
2016-12-22T06:53:42.731Z,84.86
2016-12-22T06:54:51.438Z,85.05
2016-12-22T06:56:00.131Z,84.67
2016-12-22T06:57:08.832Z,85.24
2016-12-22T06:58:17.527Z,85.61
2016-12-22T06:59:26.253Z,84.95
2016-12-22T07:00:34.957Z,85.61
2016-12-22T07:01:43.653Z,85.24
2016-12-22T07:02:52.353Z,83.91
2016-12-22T07:04:01.047Z,83.25
2016-12-22T07:05:09.748Z,83.06
2016-12-22T07:06:18.446Z,82.87
2016-12-22T07:07:27.141Z,83.15
2016-12-22T07:08:35.837Z,84.2
2016-12-22T07:09:44.532Z,85.9
2016-12-22T07:10:53.229Z,87.04
2016-12-22T07:12:01.926Z,87.04
2016-12-22T07:13:10.939Z,87.6
2016-12-22T07:14:19.643Z,87.79
2016-12-22T07:15:28.341Z,88.93
2016-12-22T07:16:37.043Z,90.16
2016-12-22T07:17:45.737Z,90.63
2016-12-22T07:18:54.438Z,90.82
2016-12-22T07:20:03.141Z,89.97
2016-12-22T07:21:12.157Z,89.5
2016-12-22T07:22:20.892Z,89.4
2016-12-22T07:23:29.588Z,88.36
2016-12-22T07:24:38.311Z,87.98
2016-12-22T07:25:47.014Z,89.12
2016-12-22T07:26:56.025Z,89.02
2016-12-22T07:28:04.719Z,89.12
2016-12-22T07:29:13.417Z,88.83
2016-12-22T07:30:22.125Z,89.5
2016-12-22T07:31:31.141Z,89.5
2016-12-22T07:32:39.838Z,88.93
2016-12-22T07:33:48.544Z,88.07
2016-12-22T07:34:57.242Z,87.7
2016-12-22T07:36:05.940Z,87.32
2016-12-22T07:37:14.634Z,86.66
2016-12-22T07:38:23.332Z,86.28
2016-12-22T07:39:32.028Z,86.37
2016-12-22T07:40:40.725Z,85.99
2016-12-22T07:41:49.419Z,86.47
2016-12-22T07:42:58.121Z,86.37
2016-12-22T07:44:06.810Z,86.56
2016-12-22T07:45:15.816Z,86.75
2016-12-22T07:46:24.510Z,87.04
2016-12-22T07:47:33.875Z,87.23
2016-12-22T07:48:42.569Z,86.66
2016-12-22T07:49:51.268Z,86.18
2016-12-22T07:50:59.966Z,86.75
2016-12-22T07:52:08.660Z,86.75
2016-12-22T07:53:17.354Z,86.47
2016-12-22T07:54:26.053Z,86.66
2016-12-22T07:55:34.762Z,86.66
2016-12-22T07:56:43.456Z,86.56
2016-12-22T07:57:52.486Z,86.85
2016-12-22T07:59:01.184Z,86.75
2016-12-22T08:00:09.880Z,87.41
2016-12-22T08:01:18.574Z,87.04
2016-12-22T08:02:27.272Z,86.47
2016-12-22T08:03:35.969Z,86.33
2016-12-22T08:04:44.666Z,86.42
2016-12-22T08:05:53.359Z,86.8
2016-12-22T08:07:02.366Z,87.08
2016-12-22T08:08:11.060Z,87.08
2016-12-22T08:09:19.768Z,86.66
2016-12-22T08:10:28.457Z,86.66
2016-12-22T08:11:37.164Z,86.52
2016-12-22T08:12:45.864Z,86.75
2016-12-22T08:13:54.561Z,86.47
2016-12-22T08:15:03.927Z,86.04
2016-12-22T08:16:12.623Z,85.99
2016-12-22T08:17:21.322Z,86.37
2016-12-22T08:18:30.013Z,86.47
2016-12-22T08:19:39.069Z,86.37
2016-12-22T08:20:47.815Z,85.99
2016-12-22T08:21:56.510Z,86.56
2016-12-22T08:23:05.563Z,85.61
2016-12-22T08:24:14.260Z,85.8
2016-12-22T08:25:22.953Z,85.71
2016-12-22T08:26:31.656Z,85.9
2016-12-22T08:27:40.672Z,85.9
2016-12-22T08:28:49.379Z,85.33
2016-12-22T08:29:58.076Z,85.05
2016-12-22T08:31:06.800Z,85.61
2016-12-22T08:32:15.494Z,84.95
2016-12-22T08:33:24.192Z,84.95
2016-12-22T08:34:32.882Z,84.86
2016-12-22T08:35:41.896Z,84.58
2016-12-22T08:36:50.615Z,84.58
2016-12-22T08:37:59.310Z,84.77
2016-12-22T08:39:08.004Z,84.1
2016-12-22T08:40:16.708Z,84.2
2016-12-22T08:41:25.402Z,84.2
2016-12-22T08:42:34.100Z,83.63
2016-12-22T08:43:42.803Z,84.29
2016-12-22T08:44:51.514Z,83.44
2016-12-22T08:46:00.245Z,83.91
2016-12-22T08:47:08.947Z,83.91
2016-12-22T08:48:17.963Z,83.72
2016-12-22T08:49:26.663Z,83.72
2016-12-22T08:50:35.360Z,84.1
2016-12-22T08:51:44.059Z,84.2
2016-12-22T08:52:52.751Z,84.48
2016-12-22T08:54:01.450Z,84.29
2016-12-22T08:55:10.149Z,84.1
2016-12-22T08:56:18.848Z,84.2
2016-12-22T08:57:27.555Z,84.01
2016-12-22T08:58:36.252Z,84.29
2016-12-22T08:59:44.943Z,84.77
2016-12-22T09:00:53.645Z,84.77
2016-12-22T09:02:02.342Z,84.86
2016-12-22T09:03:11.035Z,85.42
2016-12-22T09:04:20.043Z,85.52
2016-12-22T09:05:29.052Z,85.33
2016-12-22T09:06:37.745Z,84.67
2016-12-22T09:07:46.762Z,85.24
2016-12-22T09:08:55.463Z,85.71
2016-12-22T09:10:04.165Z,85.61
2016-12-22T09:11:12.859Z,85.52
2016-12-22T09:12:21.556Z,85.9
2016-12-22T09:13:30.260Z,85.99
2016-12-22T09:14:38.956Z,85.9
2016-12-22T09:15:47.650Z,86.37
2016-12-22T09:16:56.344Z,86.47
2016-12-22T09:20:05.062Z,87.23
2016-12-22T09:23:14.895Z,87.37
2016-12-22T09:24:23.596Z,87.74
2016-12-22T09:25:32.293Z,87.84
2016-12-22T09:26:40.988Z,87.84
2016-12-22T09:27:49.690Z,87.6
2016-12-22T09:28:58.386Z,88.07
2016-12-22T09:30:07.084Z,87.79
2016-12-22T09:31:15.781Z,87.79
2016-12-22T09:32:24.479Z,87.88
2016-12-22T09:33:33.177Z,87.98
2016-12-22T09:34:41.878Z,87.98
2016-12-22T09:35:50.609Z,87.79
2016-12-22T09:36:59.303Z,87.7
2016-12-22T09:38:08.001Z,87.7
2016-12-22T09:39:16.696Z,87.6
2016-12-22T09:40:25.392Z,87.23
2016-12-22T09:41:34.114Z,87.41
2016-12-22T09:42:42.813Z,87.51
2016-12-22T09:43:51.541Z,87.32
2016-12-22T09:45:00.237Z,87.41
2016-12-22T09:46:08.932Z,87.32
2016-12-22T09:47:17.639Z,87.32
2016-12-22T09:48:26.347Z,87.32
2016-12-22T09:49:35.042Z,87.32
2016-12-22T09:50:43.738Z,87.51
2016-12-22T09:51:52.439Z,87.6
2016-12-22T09:53:01.132Z,87.51
2016-12-22T09:54:09.835Z,87.6
2016-12-22T09:55:18.558Z,87.7
2016-12-22T09:56:27.260Z,88.36
2016-12-22T09:57:35.952Z,87.41
2016-12-22T09:58:44.646Z,87.6
2016-12-22T09:59:53.339Z,87.6
2016-12-22T10:01:02.043Z,87.6
2016-12-22T10:02:10.747Z,87.79
2016-12-22T10:03:19.438Z,87.51
2016-12-22T10:04:28.139Z,87.65
2016-12-22T10:05:36.867Z,87.46
2016-12-22T10:06:45.563Z,87.55
2016-12-22T10:07:54.255Z,87.27
2016-12-22T10:09:02.957Z,87.36
2016-12-22T10:10:11.653Z,87.17
2016-12-22T10:11:20.350Z,87.08
2016-12-22T10:12:29.045Z,86.98
2016-12-22T10:13:37.742Z,86.51
2016-12-22T10:14:46.439Z,86.51
2016-12-22T10:15:55.134Z,86.41
2016-12-22T10:17:03.829Z,86.41
2016-12-22T10:18:12.536Z,86.32
2016-12-22T10:19:21.270Z,86.51
2016-12-22T10:20:29.967Z,86.32
2016-12-22T10:21:38.684Z,86.41
2016-12-22T10:22:47.377Z,85.85
2016-12-22T10:23:56.078Z,85.94
2016-12-22T10:25:04.775Z,86.04
2016-12-22T10:26:13.482Z,85.85
2016-12-22T10:27:22.180Z,85.94
2016-12-22T10:28:30.877Z,86.41
2016-12-22T10:29:39.573Z,86.13
2016-12-22T10:30:48.267Z,86.04
2016-12-22T10:31:56.976Z,85.38
2016-12-22T10:33:05.677Z,85.38
2016-12-22T10:34:14.378Z,85.28
2016-12-22T10:35:23.073Z,85.09
2016-12-22T10:36:31.768Z,84.66
2016-12-22T10:37:40.470Z,84.28
2016-12-22T10:38:49.170Z,83.43
2016-12-22T10:39:57.867Z,83.52
2016-12-22T10:41:06.563Z,83.24
2016-12-22T10:42:15.257Z,83.14
2016-12-22T10:43:23.954Z,82.76
2016-12-22T10:44:32.653Z,82.33
2016-12-22T10:45:41.351Z,82.24
2016-12-22T10:46:50.051Z,81.2
2016-12-22T10:47:58.751Z,81.2
2016-12-22T10:49:07.446Z,81.38
2016-12-22T10:50:16.146Z,81.38
2016-12-22T10:51:25.161Z,81.38
2016-12-22T10:52:33.862Z,81.1
2016-12-22T10:53:42.562Z,80.82
2016-12-22T10:54:51.262Z,80.63
2016-12-22T10:55:59.960Z,80.34
2016-12-22T10:57:08.656Z,80.44
2016-12-22T10:58:17.357Z,80.25
2016-12-22T10:59:26.061Z,80.15
2016-12-22T11:00:34.761Z,80.1
2016-12-22T11:01:43.496Z,80.1
2016-12-22T11:02:52.195Z,79.44
2016-12-22T11:04:00.894Z,79.39
2016-12-22T11:05:09.605Z,79.91
2016-12-22T11:06:18.312Z,80.29
2016-12-22T11:07:27.016Z,79.72
2016-12-22T11:08:35.717Z,78.87
2016-12-22T11:09:44.413Z,79.25
2016-12-22T11:10:53.116Z,79.44
2016-12-22T11:12:01.847Z,78.3
2016-12-22T11:13:10.549Z,78.3
2016-12-22T11:14:19.254Z,78.11
2016-12-22T11:15:27.957Z,78.11
2016-12-22T11:16:36.981Z,77.73
2016-12-22T11:17:45.679Z,77.54
2016-12-22T11:18:54.379Z,78.39
2016-12-22T11:20:03.080Z,77.45
2016-12-22T11:21:11.781Z,77.64
2016-12-22T11:22:20.486Z,77.45
2016-12-22T11:23:29.211Z,77.29
2016-12-22T11:24:37.914Z,76.34
2016-12-22T11:25:46.613Z,76.34
2016-12-22T11:26:55.313Z,76.5
2016-12-22T11:28:04.044Z,76.5
2016-12-22T11:29:12.847Z,76.82
2016-12-22T11:30:21.546Z,77.39
2016-12-22T11:31:30.248Z,77.01
2016-12-22T11:32:38.952Z,77.01
2016-12-22T11:33:47.654Z,76.31
2016-12-22T11:34:56.358Z,76.54
2016-12-22T11:36:05.099Z,76.73
2016-12-22T11:37:13.829Z,76.54
2016-12-22T11:38:22.530Z,76.34
2016-12-22T11:39:31.229Z,76.92
2016-12-22T11:40:39.952Z,76.63
2016-12-22T11:41:48.684Z,76.15
2016-12-22T11:42:57.383Z,76.06
2016-12-22T11:44:06.092Z,75.21
2016-12-22T11:45:14.797Z,76.15
2016-12-22T11:46:23.494Z,76.06
2016-12-22T11:47:32.194Z,75.96
2016-12-22T11:48:40.893Z,76.25
2016-12-22T11:49:49.595Z,76.06
2016-12-22T11:50:58.295Z,75.96
2016-12-22T11:52:06.995Z,76.06
2016-12-22T11:53:15.698Z,76.92
2016-12-22T11:54:24.400Z,76.54
2016-12-22T11:55:33.106Z,76.06
2016-12-22T11:56:41.807Z,76.15
2016-12-22T11:57:50.504Z,75.59
2016-12-22T11:58:59.207Z,75.68
2016-12-22T12:00:08.546Z,76.06
2016-12-22T12:01:17.247Z,76.06
2016-12-22T12:02:25.947Z,76.34
2016-12-22T12:03:34.647Z,75.87
2016-12-22T12:04:43.370Z,76.73
2016-12-22T12:05:52.071Z,76.25
2016-12-22T12:07:00.776Z,76.34
2016-12-22T12:08:09.475Z,75.96
2016-12-22T12:09:18.186Z,76.25
2016-12-22T12:10:26.890Z,76.44
2016-12-22T12:11:35.593Z,76.34
2016-12-22T12:12:44.294Z,76.06
2016-12-22T12:13:52.993Z,76.15
2016-12-22T12:15:01.691Z,76.25
2016-12-22T12:16:10.395Z,75.87
2016-12-22T12:17:19.413Z,75.87
2016-12-22T12:18:28.434Z,75.31
2016-12-22T12:19:37.129Z,75.59
2016-12-22T12:20:45.831Z,75.31
2016-12-22T12:21:54.528Z,75.11
2016-12-22T12:23:03.550Z,75.21
2016-12-22T12:24:12.251Z,75.02
2016-12-22T12:25:20.958Z,74.83
2016-12-22T12:26:29.657Z,74.92
2016-12-22T12:27:38.361Z,74.73
2016-12-22T12:28:47.063Z,74.92
2016-12-22T12:29:55.763Z,75.02
2016-12-22T12:31:04.467Z,75.02
2016-12-22T12:32:13.166Z,75.4
2016-12-22T12:33:21.884Z,75.4
2016-12-22T12:34:30.898Z,75.59
2016-12-22T12:35:39.596Z,76.03
2016-12-22T12:36:48.294Z,76.5
2016-12-22T12:37:56.995Z,76.21
2016-12-22T12:39:05.726Z,76.4
2016-12-22T12:40:14.427Z,76.5
2016-12-22T12:41:23.127Z,76.12
2016-12-22T12:42:31.825Z,76.5
2016-12-22T12:43:40.522Z,76.59
2016-12-22T12:44:49.259Z,76.68
2016-12-22T12:45:57.956Z,77.25
2016-12-22T12:47:06.658Z,77.35
2016-12-22T12:48:15.358Z,77.92
2016-12-22T12:49:24.056Z,78.02
2016-12-22T12:50:32.754Z,77.83
2016-12-22T12:51:41.452Z,78.49
2016-12-22T12:52:50.157Z,78.67
2016-12-22T12:53:58.857Z,78.49
2016-12-22T12:55:07.567Z,78.83
2016-12-22T12:56:16.276Z,79.39
2016-12-22T12:57:24.976Z,79.68
2016-12-22T12:58:33.675Z,80.06
2016-12-22T12:59:42.391Z,80.53
2016-12-22T13:00:51.094Z,80.63
2016-12-22T13:01:59.797Z,80.15
2016-12-22T13:03:08.816Z,80.72
2016-12-22T13:04:17.519Z,81.29
2016-12-22T13:05:26.212Z,81.48
2016-12-22T13:06:35.220Z,81.67
2016-12-22T13:07:43.918Z,81.86
2016-12-22T13:08:52.620Z,82.33
2016-12-22T13:10:01.321Z,82.1
2016-12-22T13:11:10.016Z,82.01
2016-12-22T13:12:18.714Z,81.86
2016-12-22T13:13:27.412Z,82.2
2016-12-22T13:14:36.108Z,82.48
2016-12-22T13:15:44.810Z,82.67
2016-12-22T13:16:53.543Z,82.48
2016-12-22T13:18:02.241Z,83.14
2016-12-22T13:19:10.943Z,83.14
2016-12-22T13:20:19.642Z,83.14
2016-12-22T13:21:28.341Z,83.14
2016-12-22T13:22:37.038Z,83.05
2016-12-22T13:23:45.733Z,83.62
2016-12-22T13:24:54.438Z,83.81
2016-12-22T13:26:03.134Z,83.62
2016-12-22T13:27:12.175Z,83.81
2016-12-22T13:28:20.875Z,83.33
2016-12-22T13:29:29.571Z,83.43
2016-12-22T13:30:38.268Z,83.52
2016-12-22T13:31:46.995Z,83.71
2016-12-22T13:32:55.694Z,84
2016-12-22T13:34:04.396Z,84.09
2016-12-22T13:35:13.092Z,83.62
2016-12-22T13:36:21.790Z,83.81
2016-12-22T13:37:30.510Z,84
2016-12-22T13:38:39.223Z,83.71
2016-12-22T13:39:47.955Z,84
2016-12-22T13:40:56.659Z,83.52
2016-12-22T13:42:05.362Z,84.28
2016-12-22T13:43:14.063Z,84.09
2016-12-22T13:44:22.758Z,84.28
2016-12-22T13:45:31.461Z,84.56
2016-12-22T13:46:40.156Z,85.42
2016-12-22T13:47:48.858Z,85.42
2016-12-22T13:48:57.552Z,85.32
2016-12-22T13:50:06.251Z,85.89
2016-12-22T13:51:14.947Z,85.99
2016-12-22T13:52:23.644Z,85.8
2016-12-22T13:53:32.344Z,85.7
2016-12-22T13:54:41.045Z,86.18
2016-12-22T13:55:50.058Z,86.08
2016-12-22T13:56:58.751Z,85.7
2016-12-22T13:58:07.502Z,85.89
2016-12-22T13:59:16.202Z,85.99
2016-12-22T14:00:24.901Z,86.65
2016-12-22T14:01:33.606Z,87.02
2016-12-22T14:02:42.303Z,86.55
2016-12-22T14:03:51.005Z,86.46
2016-12-22T14:04:59.702Z,86.18
2016-12-22T14:06:08.716Z,85.99
2016-12-22T14:07:17.419Z,86.46
2016-12-22T14:08:26.115Z,86.18
2016-12-22T14:09:34.814Z,86.27
2016-12-22T14:10:43.521Z,86.46
2016-12-22T14:11:52.223Z,86.08
2016-12-22T14:13:00.916Z,86.65
2016-12-22T14:14:09.622Z,86.55
2016-12-22T14:15:18.318Z,86.55
2016-12-22T14:16:27.018Z,86.18
2016-12-22T14:17:35.719Z,86.36
2016-12-22T14:18:44.417Z,86.46
2016-12-22T14:19:53.113Z,86.18
2016-12-22T14:21:01.807Z,86.83
2016-12-22T14:22:10.506Z,86.83
2016-12-22T14:23:19.201Z,86.55
2016-12-22T14:24:27.900Z,86.93
2016-12-22T14:25:36.596Z,87.55
2016-12-22T14:26:45.296Z,87.36
2016-12-22T14:27:53.991Z,87.21
2016-12-22T14:29:02.692Z,87.78
2016-12-22T14:30:11.393Z,87.65
2016-12-22T14:31:20.085Z,87.69
2016-12-22T14:32:28.781Z,88.31
2016-12-22T14:33:37.504Z,87.78
2016-12-22T14:34:46.204Z,87.69
2016-12-22T14:35:54.900Z,87.88
2016-12-22T14:37:03.595Z,87.69
2016-12-22T14:38:12.291Z,87.59
2016-12-22T14:39:20.984Z,87.88
2016-12-22T14:40:29.677Z,87.59
2016-12-22T14:41:38.372Z,87.59
2016-12-22T14:42:47.067Z,87.69
2016-12-22T14:43:55.763Z,88.26
2016-12-22T14:45:04.477Z,88.07
2016-12-22T14:46:13.176Z,88.26
2016-12-22T14:47:22.191Z,88.26
2016-12-22T14:48:30.890Z,88.73
2016-12-22T14:49:39.585Z,88.73
2016-12-22T14:50:48.594Z,88.17
2016-12-22T14:51:57.294Z,88.07
2016-12-22T14:53:05.988Z,87.98